createdAt,value
2017-02-04T00:00:49.335Z,0
2017-02-04T00:01:49.369Z,0
2017-02-04T00:02:49.370Z,0
2017-02-04T00:03:49.400Z,0
2017-02-04T00:04:49.399Z,0
2017-02-04T00:05:49.435Z,0
2017-02-04T00:07:03.955Z,0
2017-02-04T00:07:49.469Z,0
2017-02-04T00:08:49.462Z,0
2017-02-04T00:09:49.478Z,0
2017-02-04T00:10:49.495Z,0
2017-02-04T00:12:49.520Z,0
2017-02-04T00:13:49.559Z,0
2017-02-04T00:14:49.553Z,0
2017-02-04T00:15:49.580Z,0
2017-02-04T00:16:49.591Z,0
2017-02-04T00:17:49.607Z,0
2017-02-04T00:18:49.626Z,0
2017-02-04T00:19:49.649Z,0
2017-02-04T00:20:49.269Z,0
2017-02-04T00:22:18.732Z,0
2017-02-04T00:22:49.691Z,0
2017-02-04T00:24:49.717Z,0
2017-02-04T00:25:49.736Z,0
2017-02-04T00:26:49.753Z,0
2017-02-04T00:27:49.816Z,0
2017-02-04T00:28:49.393Z,0
2017-02-04T00:29:49.800Z,0
2017-02-04T00:30:49.815Z,0
2017-02-04T00:31:49.837Z,0
2017-02-04T00:32:49.848Z,0
2017-02-04T00:33:49.863Z,0
2017-02-04T00:34:49.497Z,0
2017-02-04T00:35:49.900Z,0
2017-02-04T00:36:49.908Z,0
2017-02-04T00:37:49.930Z,0
2017-02-04T00:39:04.470Z,0
2017-02-04T00:39:49.957Z,0
2017-02-04T00:40:49.978Z,0
2017-02-04T00:41:49.989Z,0
2017-02-04T00:42:50.007Z,0
2017-02-04T00:44:04.551Z,0
2017-02-04T00:44:50.042Z,0
2017-02-04T00:46:04.583Z,0
2017-02-04T00:46:50.074Z,0
2017-02-04T00:47:50.084Z,0
2017-02-04T00:48:50.106Z,0
2017-02-04T00:49:50.117Z,0
2017-02-04T00:51:04.665Z,0
2017-02-04T00:52:04.679Z,0
2017-02-04T00:52:50.516Z,0
2017-02-04T00:54:04.759Z,0
2017-02-04T00:54:50.192Z,0
2017-02-04T00:55:50.219Z,0
2017-02-04T00:56:50.229Z,0
2017-02-04T00:57:50.248Z,0
2017-02-04T00:58:50.266Z,0
2017-02-04T00:59:50.281Z,0
2017-02-04T01:00:50.294Z,0
2017-02-04T01:01:50.310Z,0
2017-02-04T01:02:50.330Z,0
2017-02-04T01:03:50.341Z,0
2017-02-04T01:04:49.973Z,0
2017-02-04T01:06:04.906Z,0
2017-02-04T01:06:50.391Z,0
2017-02-04T01:08:04.940Z,0
2017-02-04T01:10:19.500Z,0
2017-02-04T01:10:50.459Z,0
2017-02-04T01:11:50.473Z,0
2017-02-04T01:13:05.022Z,0
2017-02-04T01:13:50.509Z,0
2017-02-04T01:14:50.135Z,0
2017-02-04T01:15:50.538Z,0
2017-02-04T01:16:50.555Z,0
2017-02-04T01:17:50.569Z,0
2017-02-04T01:18:50.590Z,0
2017-02-04T01:19:50.602Z,0
2017-02-04T01:20:50.615Z,0
2017-02-04T01:21:50.634Z,0
2017-02-04T01:23:50.665Z,0
2017-02-04T01:24:50.678Z,0
2017-02-04T01:27:05.241Z,0
2017-02-04T01:27:50.739Z,0
2017-02-04T01:28:50.743Z,0
2017-02-04T01:29:50.764Z,0
2017-02-04T01:30:50.777Z,0
2017-02-04T01:31:50.795Z,0
2017-02-04T01:32:50.812Z,0
2017-02-04T01:33:50.830Z,0
2017-02-04T01:35:05.371Z,0
2017-02-04T01:35:50.468Z,0
2017-02-04T01:36:50.881Z,0
2017-02-04T01:37:50.889Z,0
2017-02-04T01:38:50.908Z,0
2017-02-04T01:40:50.941Z,0
2017-02-04T01:42:05.099Z,0
2017-02-04T01:42:50.973Z,0
2017-02-04T01:43:50.985Z,0
2017-02-04T01:44:51.000Z,0
2017-02-04T01:45:51.017Z,0
2017-02-04T01:47:05.566Z,0
2017-02-04T01:48:05.578Z,0
2017-02-04T01:48:51.072Z,0
2017-02-04T01:49:51.080Z,0
2017-02-04T01:50:51.102Z,0
2017-02-04T01:51:51.118Z,0
2017-02-04T01:52:51.327Z,0
2017-02-04T01:54:05.678Z,0
2017-02-04T01:54:51.158Z,0
2017-02-04T01:55:51.175Z,0
2017-02-04T01:57:20.254Z,0
2017-02-04T01:57:51.260Z,0
2017-02-04T01:58:51.225Z,0
2017-02-04T01:59:51.243Z,0
2017-02-04T02:00:51.263Z,0
2017-02-04T02:01:51.275Z,0
2017-02-04T02:02:51.293Z,0
2017-02-04T02:03:51.301Z,0
2017-02-04T02:04:51.322Z,0
2017-02-04T02:05:51.336Z,0
2017-02-04T02:06:51.352Z,0
2017-02-04T02:07:51.372Z,0
2017-02-04T02:09:05.918Z,0
2017-02-04T02:09:51.400Z,0
2017-02-04T02:10:51.421Z,0
2017-02-04T02:11:51.433Z,0
2017-02-04T02:12:51.453Z,0
2017-02-04T02:14:05.992Z,0
2017-02-04T02:14:51.483Z,0
2017-02-04T02:15:51.497Z,0
2017-02-04T02:16:51.510Z,0
2017-02-04T02:17:51.533Z,0
2017-02-04T02:18:51.542Z,0
2017-02-04T02:19:51.564Z,0
2017-02-04T02:20:51.576Z,0
2017-02-04T02:21:51.595Z,0
2017-02-04T02:22:51.637Z,0
2017-02-04T02:23:51.626Z,0
2017-02-04T02:24:51.639Z,0
2017-02-04T02:25:51.666Z,0
2017-02-04T02:27:51.686Z,0
2017-02-04T02:29:06.232Z,0
2017-02-04T02:29:51.720Z,0
2017-02-04T02:30:51.745Z,0
2017-02-04T02:31:51.757Z,0
2017-02-04T02:32:51.771Z,0
2017-02-04T02:33:51.783Z,0
2017-02-04T02:35:06.333Z,0
2017-02-04T02:35:51.814Z,0
2017-02-04T02:36:51.830Z,0
2017-02-04T02:37:51.850Z,0
2017-02-04T02:38:51.866Z,0
2017-02-04T02:39:51.878Z,0
2017-02-04T02:40:51.904Z,0
2017-02-04T02:41:51.944Z,0
2017-02-04T02:42:51.927Z,0
2017-02-04T02:45:51.997Z,0
2017-02-04T02:46:51.987Z,0
2017-02-04T02:47:52.009Z,0
2017-02-04T02:48:52.022Z,0
2017-02-04T02:49:52.058Z,0
2017-02-04T02:50:52.055Z,0
2017-02-04T02:51:52.120Z,0
2017-02-04T02:52:51.703Z,0
2017-02-04T02:53:52.113Z,0
2017-02-04T02:54:52.120Z,0
2017-02-04T02:56:52.147Z,0
2017-02-04T02:57:52.166Z,0
2017-02-04T02:59:07.010Z,0
2017-02-04T02:59:52.204Z,0
2017-02-04T03:01:52.225Z,0
2017-02-04T03:02:52.243Z,0
2017-02-04T03:03:52.282Z,0
2017-02-04T03:04:51.887Z,0
2017-02-04T03:05:52.307Z,0
2017-02-04T03:06:52.306Z,0
2017-02-04T03:08:06.851Z,0
2017-02-04T03:08:52.334Z,0
2017-02-04T03:09:52.352Z,0
2017-02-04T03:11:06.903Z,0
2017-02-04T03:12:52.400Z,0
2017-02-04T03:13:52.437Z,0
2017-02-04T03:14:52.466Z,0
2017-02-04T03:15:52.484Z,0
2017-02-04T03:17:06.992Z,0
2017-02-04T03:18:07.022Z,0
2017-02-04T03:19:52.509Z,0
2017-02-04T03:20:52.525Z,0
2017-02-04T03:21:52.157Z,0
2017-02-04T03:22:52.557Z,0
2017-02-04T03:23:52.609Z,0
2017-02-04T03:24:52.591Z,0
2017-02-04T03:26:07.134Z,0
2017-02-04T03:26:52.622Z,0
2017-02-04T03:27:52.637Z,0
2017-02-04T03:29:52.667Z,0
2017-02-04T03:30:52.687Z,0
2017-02-04T03:32:07.235Z,0
2017-02-04T03:32:52.723Z,0
2017-02-04T03:33:52.735Z,0
2017-02-04T03:34:52.750Z,0
2017-02-04T03:35:52.766Z,0
2017-02-04T03:36:52.784Z,0
2017-02-04T03:37:52.794Z,0
2017-02-04T03:38:52.815Z,0
2017-02-04T03:39:52.442Z,0
2017-02-04T03:40:52.850Z,0
2017-02-04T03:41:52.872Z,0
2017-02-04T03:42:52.878Z,0
2017-02-04T03:43:52.898Z,0
2017-02-04T03:44:52.909Z,0
2017-02-04T03:46:52.939Z,0
2017-02-04T03:48:52.978Z,0
2017-02-04T03:49:52.988Z,0
2017-02-04T03:50:53.037Z,0
2017-02-04T03:51:53.020Z,0
2017-02-04T03:52:53.038Z,0
2017-02-04T03:54:07.579Z,0
2017-02-04T03:54:53.066Z,0
2017-02-04T03:55:52.696Z,0
2017-02-04T03:57:07.632Z,0
2017-02-04T03:57:53.118Z,0
2017-02-04T03:59:07.665Z,0
2017-02-04T04:00:07.285Z,0
2017-02-04T04:00:53.168Z,0
2017-02-04T04:01:53.181Z,0
2017-02-04T04:02:52.837Z,0
2017-02-04T04:04:22.269Z,0
2017-02-04T04:04:53.227Z,0
2017-02-04T04:05:53.245Z,0
2017-02-04T04:06:53.255Z,0
2017-02-04T04:08:07.807Z,0
2017-02-04T04:08:53.288Z,0
2017-02-04T04:09:53.308Z,0
2017-02-04T04:10:53.319Z,0
2017-02-04T04:11:52.565Z,0
2017-02-04T04:12:52.971Z,0
2017-02-04T04:14:07.507Z,0
2017-02-04T04:14:53.384Z,0
2017-02-04T04:15:53.396Z,0
2017-02-04T04:16:53.031Z,0
2017-02-04T04:17:53.440Z,0
2017-02-04T04:18:53.443Z,0
2017-02-04T04:20:07.604Z,0
2017-02-04T04:20:53.482Z,0
2017-02-04T04:21:53.502Z,0
2017-02-04T04:22:53.509Z,0
2017-02-04T04:23:53.523Z,0
2017-02-04T04:24:53.544Z,0
2017-02-04T04:25:53.574Z,0
2017-02-04T04:26:53.574Z,0
2017-02-04T04:27:53.611Z,0
2017-02-04T04:28:53.605Z,0
2017-02-04T04:29:53.642Z,0
2017-02-04T04:30:53.637Z,0
2017-02-04T04:31:53.664Z,0
2017-02-04T04:32:53.667Z,0
2017-02-04T04:33:53.704Z,0
2017-02-04T04:34:53.316Z,0
2017-02-04T04:36:07.854Z,0
2017-02-04T04:36:53.734Z,0
2017-02-04T04:37:53.752Z,0
2017-02-04T04:38:53.762Z,0
2017-02-04T04:39:53.778Z,0
2017-02-04T04:40:53.795Z,0
2017-02-04T04:41:53.805Z,0
2017-02-04T04:43:08.355Z,0
2017-02-04T04:43:53.457Z,0
2017-02-04T04:45:07.999Z,0
2017-02-04T04:45:53.874Z,0
2017-02-04T04:46:53.889Z,0
2017-02-04T04:48:08.440Z,0
2017-02-04T04:49:08.448Z,0
2017-02-04T04:50:08.465Z,0
2017-02-04T04:52:53.987Z,0
2017-02-04T04:53:54.004Z,0
2017-02-04T04:54:54.017Z,0
2017-02-04T04:55:54.033Z,0
2017-02-04T04:56:54.054Z,0
2017-02-04T04:57:54.061Z,0
2017-02-04T04:58:54.080Z,0
2017-02-04T04:59:54.090Z,0
2017-02-04T05:00:54.144Z,0
2017-02-04T05:02:08.702Z,0
2017-02-04T05:02:54.141Z,0
2017-02-04T05:04:08.688Z,0
2017-02-04T05:04:54.178Z,0
2017-02-04T05:06:08.718Z,0
2017-02-04T05:07:54.225Z,0
2017-02-04T05:08:54.239Z,0
2017-02-04T05:09:53.868Z,0
2017-02-04T05:10:54.271Z,0
2017-02-04T05:11:54.285Z,0
2017-02-04T05:12:54.299Z,0
2017-02-04T05:13:54.320Z,0
2017-02-04T05:14:54.337Z,0
2017-02-04T05:15:54.351Z,0
2017-02-04T05:16:54.363Z,0
2017-02-04T05:17:54.409Z,0
2017-02-04T05:18:53.630Z,0
2017-02-04T05:19:54.410Z,0
2017-02-04T05:20:53.656Z,0
2017-02-04T05:21:54.061Z,0
2017-02-04T05:23:08.600Z,0
2017-02-04T05:23:54.469Z,0
2017-02-04T05:24:54.494Z,0
2017-02-04T05:25:54.121Z,0
2017-02-04T05:26:54.138Z,0
2017-02-04T05:27:54.152Z,0
2017-02-04T05:29:09.084Z,0
2017-02-04T05:29:54.180Z,0
2017-02-04T05:30:54.198Z,0
2017-02-04T05:31:54.596Z,0
2017-02-04T05:32:54.227Z,0
2017-02-04T05:33:54.634Z,0
2017-02-04T05:34:54.652Z,0
2017-02-04T05:37:54.694Z,0
2017-02-04T05:39:09.246Z,0
2017-02-04T05:40:54.745Z,0
2017-02-04T05:41:54.753Z,0
2017-02-04T05:42:54.774Z,0
2017-02-04T05:43:54.794Z,0
2017-02-04T05:45:09.337Z,0
2017-02-04T05:45:54.820Z,0
2017-02-04T05:47:09.368Z,0
2017-02-04T05:47:54.856Z,0
2017-02-04T05:48:54.871Z,0
2017-02-04T05:49:54.885Z,0
2017-02-04T05:50:54.902Z,0
2017-02-04T05:51:54.918Z,0
2017-02-04T05:52:54.935Z,0
2017-02-04T05:53:54.955Z,0
2017-02-04T05:55:09.498Z,0
2017-02-04T05:55:54.980Z,0
2017-02-04T05:56:54.997Z,0
2017-02-04T05:57:55.013Z,0
2017-02-04T05:58:55.034Z,0
2017-02-04T06:00:09.575Z,0
2017-02-04T06:01:09.589Z,0
2017-02-04T06:02:09.910Z,0
2017-02-04T06:02:55.092Z,0
2017-02-04T06:03:54.723Z,0
2017-02-04T06:04:55.125Z,0
2017-02-04T06:05:55.142Z,0
2017-02-04T06:07:55.224Z,0
2017-02-04T06:09:55.199Z,0
2017-02-04T06:11:09.363Z,0
2017-02-04T06:11:55.234Z,0
2017-02-04T06:12:55.252Z,0
2017-02-04T06:13:55.265Z,0
2017-02-04T06:14:55.283Z,0
2017-02-04T06:15:55.301Z,0
2017-02-04T06:16:54.929Z,4
2017-02-04T06:18:09.859Z,4
2017-02-04T06:19:09.489Z,0
2017-02-04T06:19:55.363Z,4
2017-02-04T06:20:55.382Z,4
2017-02-04T06:21:55.397Z,8
2017-02-04T06:22:55.024Z,4
2017-02-04T06:23:55.433Z,8
2017-02-04T06:24:55.436Z,8
2017-02-04T06:25:55.073Z,12
2017-02-04T06:27:10.001Z,12
2017-02-04T06:27:55.109Z,12
2017-02-04T06:29:55.535Z,20
2017-02-04T06:30:55.541Z,20
2017-02-04T06:31:55.554Z,24
2017-02-04T06:32:55.573Z,28
2017-02-04T06:33:55.197Z,28
2017-02-04T06:34:55.603Z,32
2017-02-04T06:35:55.620Z,40
2017-02-04T06:36:55.638Z,36
2017-02-04T06:38:55.697Z,44
2017-02-04T06:39:54.909Z,52
2017-02-04T06:40:55.704Z,60
2017-02-04T06:42:10.243Z,64
2017-02-04T06:42:55.727Z,64
2017-02-04T06:43:55.352Z,68
2017-02-04T06:44:55.472Z,76
2017-02-04T06:45:55.487Z,84
2017-02-04T06:46:55.795Z,88
2017-02-04T06:47:55.417Z,104
2017-02-04T06:48:55.442Z,112
2017-02-04T06:49:55.839Z,120
2017-02-04T06:50:55.885Z,120
2017-02-04T06:51:55.874Z,128
2017-02-04T06:52:55.507Z,136
2017-02-04T06:53:55.905Z,156
2017-02-04T06:55:10.448Z,176
2017-02-04T06:55:55.938Z,180
2017-02-04T06:56:55.959Z,192
2017-02-04T06:57:55.578Z,204
2017-02-04T06:58:55.980Z,212
2017-02-04T06:59:55.999Z,220
2017-02-04T07:00:56.009Z,236
2017-02-04T07:01:56.027Z,252
2017-02-04T07:02:56.044Z,268
2017-02-04T07:03:56.059Z,288
2017-02-04T07:04:56.078Z,296
2017-02-04T07:05:56.088Z,296
2017-02-04T07:06:56.106Z,320
2017-02-04T07:07:55.735Z,340
2017-02-04T07:08:56.136Z,368
2017-02-04T07:10:56.166Z,424
2017-02-04T07:11:56.183Z,440
2017-02-04T07:12:56.199Z,436
2017-02-04T07:14:10.947Z,440
2017-02-04T07:14:56.233Z,440
2017-02-04T07:16:56.268Z,488
2017-02-04T07:17:56.277Z,508
2017-02-04T07:18:56.300Z,552
2017-02-04T07:19:56.315Z,588
2017-02-04T07:21:56.347Z,568
2017-02-04T07:22:56.360Z,596
2017-02-04T07:23:56.377Z,612
2017-02-04T07:24:56.389Z,688
2017-02-04T07:26:56.420Z,708
2017-02-04T07:27:56.440Z,740
2017-02-04T07:28:56.454Z,752
2017-02-04T07:30:11.002Z,768
2017-02-04T07:30:56.490Z,796
2017-02-04T07:31:56.112Z,856
2017-02-04T07:32:56.516Z,872
2017-02-04T07:33:56.534Z,872
2017-02-04T07:34:56.547Z,868
2017-02-04T07:35:56.566Z,896
2017-02-04T07:36:56.577Z,948
2017-02-04T07:37:56.599Z,1004
2017-02-04T07:38:56.614Z,1008
2017-02-04T07:39:56.625Z,1012
2017-02-04T07:40:56.252Z,1076
2017-02-04T07:41:56.661Z,1068
2017-02-04T07:42:56.674Z,1052
2017-02-04T07:43:56.695Z,1124
2017-02-04T07:44:56.711Z,1104
2017-02-04T07:46:25.781Z,1148
2017-02-04T07:46:56.776Z,1176
2017-02-04T07:47:56.752Z,1280
2017-02-04T07:48:56.768Z,1304
2017-02-04T07:49:56.401Z,1232
2017-02-04T07:50:56.801Z,1272
2017-02-04T07:52:11.350Z,1312
2017-02-04T07:52:56.831Z,1368
2017-02-04T07:53:56.852Z,1360
2017-02-04T07:54:56.862Z,1300
2017-02-04T07:55:56.883Z,1264
2017-02-04T07:57:11.429Z,1184
2017-02-04T07:57:56.912Z,1356
2017-02-04T07:59:11.459Z,1384
2017-02-04T08:00:56.964Z,1428
2017-02-04T08:02:11.504Z,1684
2017-02-04T08:02:56.989Z,1616
2017-02-04T08:03:57.011Z,1564
2017-02-04T08:05:11.549Z,1604
2017-02-04T08:05:57.039Z,1800
2017-02-04T08:06:57.053Z,1696
2017-02-04T08:07:57.077Z,1596
2017-02-04T08:08:57.089Z,1376
2017-02-04T08:09:57.105Z,1080
2017-02-04T08:10:57.123Z,816
2017-02-04T08:11:57.130Z,804
2017-02-04T08:12:57.150Z,816
2017-02-04T08:14:11.700Z,908
2017-02-04T08:14:57.185Z,900
2017-02-04T08:15:57.241Z,1240
2017-02-04T08:17:11.359Z,1776
2017-02-04T08:17:57.237Z,1964
2017-02-04T08:18:57.250Z,1768
2017-02-04T08:19:57.262Z,1536
2017-02-04T08:20:57.281Z,1608
2017-02-04T08:22:11.826Z,1836
2017-02-04T08:23:11.844Z,1796
2017-02-04T08:23:57.336Z,1840
2017-02-04T08:24:57.339Z,1972
2017-02-04T08:25:57.368Z,1856
2017-02-04T08:26:57.378Z,1772
2017-02-04T08:27:57.393Z,1752
2017-02-04T08:29:11.940Z,1896
2017-02-04T08:30:57.447Z,2272
2017-02-04T08:31:57.461Z,2260
2017-02-04T08:32:57.466Z,2204
2017-02-04T08:33:57.497Z,2172
2017-02-04T08:34:57.504Z,2272
2017-02-04T08:35:57.525Z,2464
2017-02-04T08:36:57.545Z,2560
2017-02-04T08:37:57.561Z,2200
2017-02-04T08:38:57.569Z,2044
2017-02-04T08:39:57.589Z,2056
2017-02-04T08:40:57.612Z,1904
2017-02-04T08:42:12.154Z,2128
2017-02-04T08:42:57.639Z,2168
2017-02-04T08:43:57.998Z,2192
2017-02-04T08:44:57.667Z,2460
2017-02-04T08:45:57.689Z,1908
2017-02-04T08:46:57.952Z,2136
2017-02-04T08:47:57.712Z,1948
2017-02-04T08:49:12.262Z,1584
2017-02-04T08:49:57.751Z,1544
2017-02-04T08:50:57.767Z,1500
2017-02-04T08:51:57.395Z,1392
2017-02-04T08:52:57.796Z,1420
2017-02-04T08:53:57.811Z,1404
2017-02-04T08:55:12.360Z,1328
2017-02-04T08:56:12.375Z,1352
2017-02-04T08:57:12.390Z,1352
2017-02-04T08:57:57.878Z,1312
2017-02-04T08:59:12.424Z,1252
2017-02-04T08:59:57.912Z,1260
2017-02-04T09:00:57.927Z,1280
2017-02-04T09:01:57.945Z,1280
2017-02-04T09:02:57.961Z,1384
2017-02-04T09:03:57.975Z,1532
2017-02-04T09:05:27.054Z,1700
2017-02-04T09:05:58.010Z,1796
2017-02-04T09:06:58.032Z,1948
2017-02-04T09:07:58.040Z,2048
2017-02-04T09:08:58.061Z,2188
2017-02-04T09:09:58.072Z,2456
2017-02-04T09:11:12.624Z,2760
2017-02-04T09:11:58.107Z,2960
2017-02-04T09:12:58.127Z,3264
2017-02-04T09:13:58.140Z,3652
2017-02-04T09:14:58.157Z,4132
2017-02-04T09:15:58.171Z,5104
2017-02-04T09:16:58.192Z,4980
2017-02-04T09:17:58.206Z,3684
2017-02-04T09:18:58.227Z,4420
2017-02-04T09:20:12.768Z,3184
2017-02-04T09:21:12.799Z,3636
2017-02-04T09:21:58.277Z,3556
2017-02-04T09:22:58.293Z,3408
2017-02-04T09:23:58.307Z,3432
2017-02-04T09:24:58.320Z,2860
2017-02-04T09:25:58.337Z,2992
2017-02-04T09:26:58.354Z,3380
2017-02-04T09:27:58.377Z,3408
2017-02-04T09:28:58.394Z,3476
2017-02-04T09:29:58.407Z,3884
2017-02-04T09:30:58.427Z,3596
2017-02-04T09:31:58.440Z,3588
2017-02-04T09:32:58.457Z,3744
2017-02-04T09:33:58.480Z,3780
2017-02-04T09:34:58.504Z,3496
2017-02-04T09:35:58.508Z,3652
2017-02-04T09:37:27.584Z,3672
2017-02-04T09:37:58.542Z,3764
2017-02-04T09:38:58.559Z,4116
2017-02-04T09:39:58.576Z,4000
2017-02-04T09:41:13.128Z,3808
2017-02-04T09:41:58.608Z,3616
2017-02-04T09:42:58.237Z,3648
2017-02-04T09:44:13.173Z,3500
2017-02-04T09:44:58.663Z,3700
2017-02-04T09:45:58.777Z,3012
2017-02-04T09:46:58.696Z,3780
2017-02-04T09:47:58.721Z,3796
2017-02-04T09:48:58.730Z,3464
2017-02-04T09:49:58.745Z,3252
2017-02-04T09:50:58.375Z,3500
2017-02-04T09:52:58.801Z,3256
2017-02-04T09:54:13.348Z,3740
2017-02-04T09:54:58.439Z,3528
2017-02-04T09:55:58.854Z,3168
2017-02-04T09:56:58.873Z,3568
2017-02-04T09:57:58.883Z,4132
2017-02-04T09:58:58.903Z,3580
2017-02-04T09:59:58.920Z,3904
2017-02-04T10:00:58.933Z,4268
2017-02-04T10:01:58.953Z,4024
2017-02-04T10:02:58.977Z,4004
2017-02-04T10:03:58.216Z,4552
2017-02-04T10:04:59.004Z,4532
2017-02-04T10:06:58.262Z,4596
2017-02-04T10:07:59.072Z,4392
2017-02-04T10:08:59.074Z,4044
2017-02-04T10:09:59.091Z,4232
2017-02-04T10:10:59.108Z,3100
2017-02-04T10:11:59.131Z,2740
2017-02-04T10:12:59.139Z,2224
2017-02-04T10:13:59.159Z,2128
2017-02-04T10:14:59.176Z,2172
2017-02-04T10:15:58.424Z,2012
2017-02-04T10:17:13.736Z,1756
2017-02-04T10:17:59.231Z,1872
2017-02-04T10:18:59.242Z,2332
2017-02-04T10:19:59.267Z,2564
2017-02-04T10:20:58.890Z,2844
2017-02-04T10:21:59.297Z,2820
2017-02-04T10:22:58.925Z,3016
2017-02-04T10:24:13.865Z,4160
2017-02-04T10:24:58.960Z,4388
2017-02-04T10:25:59.369Z,4440
2017-02-04T10:26:59.385Z,4184
2017-02-04T10:27:59.399Z,3832
2017-02-04T10:29:13.950Z,4304
2017-02-04T10:30:13.965Z,4356
2017-02-04T10:30:59.456Z,4440
2017-02-04T10:31:59.475Z,3968
2017-02-04T10:32:59.491Z,3984
2017-02-04T10:34:13.649Z,4284
2017-02-04T10:34:59.133Z,4624
2017-02-04T10:35:59.154Z,5328
2017-02-04T10:36:59.557Z,4988
2017-02-04T10:37:59.574Z,4624
2017-02-04T10:38:59.206Z,4316
2017-02-04T10:40:59.247Z,3408
2017-02-04T10:41:59.642Z,3164
2017-02-04T10:42:59.664Z,3176
2017-02-04T10:43:59.297Z,3032
2017-02-04T10:44:59.696Z,3432
2017-02-04T10:45:59.721Z,4356
2017-02-04T10:46:59.736Z,4988
2017-02-04T10:47:59.747Z,5100
2017-02-04T10:49:14.336Z,5112
2017-02-04T10:49:59.784Z,5640
2017-02-04T10:50:59.812Z,5696
2017-02-04T10:51:59.821Z,5684
2017-02-04T10:53:59.855Z,5004
2017-02-04T10:54:59.874Z,5248
2017-02-04T10:56:14.033Z,5160
2017-02-04T10:56:59.913Z,5256
2017-02-04T10:57:59.926Z,5588
2017-02-04T10:58:59.945Z,5228
2017-02-04T10:59:59.963Z,5084
2017-02-04T11:00:59.975Z,5092
2017-02-04T11:02:00.004Z,5240
2017-02-04T11:04:00.037Z,4924
2017-02-04T11:05:00.354Z,5304
2017-02-04T11:06:00.069Z,5224
2017-02-04T11:07:00.093Z,4728
2017-02-04T11:08:00.137Z,4620
2017-02-04T11:09:00.133Z,4400
2017-02-04T11:10:00.490Z,4540
2017-02-04T11:11:00.160Z,4776
2017-02-04T11:12:29.235Z,4348
2017-02-04T11:13:00.198Z,4292
2017-02-04T11:14:00.219Z,4116
2017-02-04T11:15:00.231Z,3980
2017-02-04T11:16:00.248Z,4204
2017-02-04T11:17:00.266Z,4272
2017-02-04T11:18:00.279Z,4020
2017-02-04T11:19:00.305Z,3388
2017-02-04T11:20:00.312Z,2676
2017-02-04T11:20:59.951Z,2980
2017-02-04T11:22:00.360Z,3180
2017-02-04T11:24:00.392Z,4252
2017-02-04T11:25:00.409Z,4388
2017-02-04T11:26:00.425Z,4612
2017-02-04T11:27:29.503Z,4528
2017-02-04T11:28:00.468Z,4536
2017-02-04T11:29:00.482Z,4520
2017-02-04T11:30:00.502Z,3864
2017-02-04T11:31:00.520Z,4052
2017-02-04T11:32:00.536Z,4144
2017-02-04T11:33:15.083Z,4252
2017-02-04T11:34:00.571Z,4500
2017-02-04T11:35:00.590Z,4732
2017-02-04T11:36:00.601Z,4404
2017-02-04T11:37:00.622Z,4148
2017-02-04T11:38:00.642Z,4576
2017-02-04T11:39:15.191Z,4768
2017-02-04T11:40:00.675Z,4496
2017-02-04T11:41:00.692Z,4312
2017-02-04T11:42:00.714Z,4332
2017-02-04T11:43:00.352Z,4384
2017-02-04T11:44:00.747Z,4224
2017-02-04T11:45:00.765Z,3708
2017-02-04T11:46:00.785Z,3420
2017-02-04T11:47:00.803Z,3420
2017-02-04T11:48:00.815Z,3284
2017-02-04T11:49:15.376Z,3116
2017-02-04T11:50:00.854Z,3036
2017-02-04T11:51:00.874Z,3028
2017-02-04T11:52:00.893Z,3184
2017-02-04T11:53:00.914Z,3680
2017-02-04T11:54:00.926Z,4080
2017-02-04T11:55:15.477Z,4060
2017-02-04T11:56:00.961Z,4156
2017-02-04T11:57:00.983Z,4488
2017-02-04T11:58:00.999Z,4860
2017-02-04T11:59:15.544Z,4760
2017-02-04T12:00:01.038Z,3952
2017-02-04T12:01:15.579Z,2560
2017-02-04T12:02:01.072Z,3252
2017-02-04T12:03:01.088Z,3720
2017-02-04T12:04:01.109Z,3952
2017-02-04T12:05:01.124Z,3856
2017-02-04T12:06:15.671Z,3616
2017-02-04T12:07:15.688Z,3804
2017-02-04T12:08:15.708Z,3916
2017-02-04T12:09:01.198Z,3856
2017-02-04T12:10:01.218Z,3844
2017-02-04T12:11:15.764Z,4236
2017-02-04T12:12:01.262Z,4096
2017-02-04T12:13:15.797Z,4360
2017-02-04T12:14:01.292Z,4680
2017-02-04T12:15:30.363Z,4944
2017-02-04T12:16:01.331Z,5016
2017-02-04T12:17:01.341Z,5164
2017-02-04T12:18:01.360Z,5400
2017-02-04T12:19:01.377Z,5708
2017-02-04T12:20:01.011Z,5588
2017-02-04T12:21:01.413Z,5128
2017-02-04T12:22:01.433Z,4292
2017-02-04T12:23:01.452Z,3720
2017-02-04T12:24:01.079Z,3892
2017-02-04T12:25:01.487Z,4080
2017-02-04T12:26:01.508Z,4024
2017-02-04T12:27:01.522Z,3620
2017-02-04T12:28:01.543Z,3372
2017-02-04T12:29:01.562Z,3364
2017-02-04T12:30:01.585Z,3248
2017-02-04T12:31:30.656Z,3328
2017-02-04T12:32:01.615Z,3340
2017-02-04T12:33:01.631Z,3360
2017-02-04T12:34:01.651Z,3492
2017-02-04T12:35:01.667Z,3640
2017-02-04T12:36:01.688Z,3756
2017-02-04T12:37:16.237Z,3992
2017-02-04T12:38:01.721Z,4268
2017-02-04T12:39:01.737Z,4496
2017-02-04T12:40:01.378Z,4900
2017-02-04T12:41:01.777Z,5164
2017-02-04T12:42:01.795Z,5036
2017-02-04T12:43:01.817Z,4840
2017-02-04T12:44:16.362Z,4312
2017-02-04T12:45:01.865Z,3916
2017-02-04T12:46:01.867Z,3424
2017-02-04T12:47:16.030Z,2852
2017-02-04T12:48:01.909Z,2640
2017-02-04T12:49:16.451Z,2508
2017-02-04T12:50:01.946Z,2444
2017-02-04T12:51:01.960Z,2524
2017-02-04T12:52:01.978Z,2804
2017-02-04T12:53:01.997Z,3124
2017-02-04T12:54:02.011Z,3444
2017-02-04T12:55:02.033Z,3240
2017-02-04T12:56:02.052Z,2820
2017-02-04T12:57:02.071Z,2536
2017-02-04T12:58:02.088Z,2544
2017-02-04T12:59:16.635Z,3180
2017-02-04T13:00:02.123Z,3872
2017-02-04T13:01:02.146Z,4492
2017-02-04T13:03:02.181Z,4784
2017-02-04T13:04:02.243Z,4252
2017-02-04T13:05:02.237Z,3772
2017-02-04T13:06:02.237Z,3108
2017-02-04T13:07:16.821Z,2452
2017-02-04T13:08:16.798Z,2276
2017-02-04T13:09:02.286Z,2348
2017-02-04T13:10:02.308Z,2516
2017-02-04T13:11:02.320Z,2700
2017-02-04T13:12:02.343Z,2856
2017-02-04T13:13:02.362Z,3036
2017-02-04T13:14:02.378Z,3256
2017-02-04T13:15:02.394Z,3400
2017-02-04T13:16:16.945Z,3120
2017-02-04T13:17:02.428Z,2968
2017-02-04T13:18:02.452Z,2916
2017-02-04T13:19:16.995Z,2960
2017-02-04T13:20:02.487Z,2988
2017-02-04T13:21:02.509Z,3024
2017-02-04T13:22:02.522Z,2928
2017-02-04T13:24:02.556Z,2944
2017-02-04T13:25:02.574Z,3280
2017-02-04T13:26:17.123Z,3324
2017-02-04T13:27:02.615Z,3144
2017-02-04T13:28:02.630Z,2700
2017-02-04T13:29:02.648Z,2276
2017-02-04T13:30:02.667Z,2232
2017-02-04T13:31:02.691Z,2292
2017-02-04T13:33:02.724Z,2352
2017-02-04T13:34:17.268Z,2480
2017-02-04T13:35:02.377Z,2576
2017-02-04T13:36:16.918Z,2496
2017-02-04T13:37:02.407Z,2388
2017-02-04T13:38:02.815Z,2228
2017-02-04T13:39:02.829Z,2180
2017-02-04T13:40:02.847Z,2304
2017-02-04T13:41:02.871Z,2344
2017-02-04T13:42:17.419Z,2320
2017-02-04T13:43:17.432Z,2284
2017-02-04T13:44:02.922Z,2220
2017-02-04T13:45:02.945Z,2080
2017-02-04T13:46:02.568Z,2068
2017-02-04T13:47:02.586Z,2204
2017-02-04T13:48:02.601Z,2380
2017-02-04T13:49:03.011Z,2524
2017-02-04T13:50:32.088Z,2288
2017-02-04T13:51:03.054Z,2176
2017-02-04T13:52:03.068Z,2028
2017-02-04T13:53:03.087Z,1908
2017-02-04T13:54:02.714Z,1856
2017-02-04T13:55:02.736Z,1844
2017-02-04T13:56:17.672Z,1844
2017-02-04T13:57:03.155Z,1808
2017-02-04T13:58:03.174Z,1824
2017-02-04T13:59:03.192Z,1924
2017-02-04T14:00:03.212Z,1972
2017-02-04T14:01:17.759Z,1888
2017-02-04T14:02:03.249Z,1756
2017-02-04T14:03:02.882Z,1692
2017-02-04T14:04:03.280Z,1724
2017-02-04T14:05:03.301Z,1836
2017-02-04T14:06:17.845Z,2052
2017-02-04T14:07:03.336Z,2076
2017-02-04T14:08:03.357Z,2004
2017-02-04T14:09:03.371Z,1876
2017-02-04T14:10:03.385Z,1796
2017-02-04T14:11:03.019Z,1872
2017-02-04T14:12:03.420Z,1800
2017-02-04T14:13:03.444Z,1768
2017-02-04T14:14:03.465Z,1552
2017-02-04T14:15:03.477Z,1364
2017-02-04T14:16:03.494Z,1308
2017-02-04T14:17:03.509Z,1320
2017-02-04T14:18:03.531Z,1264
2017-02-04T14:19:18.081Z,1296
2017-02-04T14:20:03.567Z,1392
2017-02-04T14:21:03.200Z,1668
2017-02-04T14:22:17.355Z,1784
2017-02-04T14:23:03.237Z,1600
2017-02-04T14:24:03.638Z,1256
2017-02-04T14:25:03.658Z,1032
2017-02-04T14:26:03.675Z,1084
2017-02-04T14:27:03.692Z,1472
2017-02-04T14:28:18.237Z,1544
2017-02-04T14:29:03.722Z,1420
2017-02-04T14:30:03.743Z,1348
2017-02-04T14:31:03.766Z,1368
2017-02-04T14:32:03.781Z,1416
2017-02-04T14:33:18.329Z,1204
2017-02-04T14:34:03.851Z,1024
2017-02-04T14:35:03.834Z,884
2017-02-04T14:36:03.462Z,928
2017-02-04T14:37:18.396Z,1028
2017-02-04T14:38:18.029Z,1080
2017-02-04T14:39:18.045Z,1140